sensor_id;sensor_type;location;lat;lon;timestamp;temperature;humidity
49242;DHT22;35079;52.704;13.814;2022-12-07T00:00:53;3.70;99.90
49242;DHT22;35079;52.704;13.814;2022-12-07T00:03:19;3.60;99.90
49242;DHT22;35079;52.704;13.814;2022-12-07T00:05:44;3.60;99.90
49242;DHT22;35079;52.704;13.814;2022-12-07T00:08:10;3.60;99.90
49242;DHT22;35079;52.704;13.814;2022-12-07T00:10:36;3.60;99.90
49242;DHT22;35079;52.704;13.814;2022-12-07T00:13:01;3.60;99.90
49242;DHT22;35079;52.704;13.814;2022-12-07T00:15:27;3.60;99.90
49242;DHT22;35079;52.704;13.814;2022-12-07T00:17:53;3.70;99.90
49242;DHT22;35079;52.704;13.814;2022-12-07T00:20:18;3.60;99.90
49242;DHT22;35079;52.704;13.814;2022-12-07T00:22:44;3.60;99.90
49242;DHT22;35079;52.704;13.814;2022-12-07T00:25:10;3.70;99.90
49242;DHT22;35079;52.704;13.814;2022-12-07T00:27:35;3.60;99.90
49242;DHT22;35079;52.704;13.814;2022-12-07T00:30:01;3.60;99.90
49242;DHT22;35079;52.704;13.814;2022-12-07T00:32:26;3.60;99.90
49242;DHT22;35079;52.704;13.814;2022-12-07T00:34:52;3.50;99.90
49242;DHT22;35079;52.704;13.814;2022-12-07T00:37:17;3.50;99.90
49242;DHT22;35079;52.704;13.814;2022-12-07T00:39:43;3.40;99.90
49242;DHT22;35079;52.704;13.814;2022-12-07T00:42:10;3.50;99.90
49242;DHT22;35079;52.704;13.814;2022-12-07T00:44:36;3.50;99.90
49242;DHT22;35079;52.704;13.814;2022-12-07T00:47:01;3.50;99.90
49242;DHT22;35079;52.704;13.814;2022-12-07T00:49:27;3.40;99.90
49242;DHT22;35079;52.704;13.814;2022-12-07T00:51:53;3.30;99.90
49242;DHT22;35079;52.704;13.814;2022-12-07T00:54:18;3.30;99.90
49242;DHT22;35079;52.704;13.814;2022-12-07T00:56:44;3.30;99.90
49242;DHT22;35079;52.704;13.814;2022-12-07T00:59:12;3.40;99.90
49242;DHT22;35079;52.704;13.814;2022-12-07T01:01:40;3.20;99.90
49242;DHT22;35079;52.704;13.814;2022-12-07T01:04:06;3.30;99.90
49242;DHT22;35079;52.704;13.814;2022-12-07T01:06:32;3.20;99.90
49242;DHT22;35079;52.704;13.814;2022-12-07T01:08:58;3.20;99.90
49242;DHT22;35079;52.704;13.814;2022-12-07T01:11:25;3.20;99.90
49242;DHT22;35079;52.704;13.814;2022-12-07T01:13:53;3.20;99.90
49242;DHT22;35079;52.704;13.814;2022-12-07T01:16:20;3.30;99.90
49242;DHT22;35079;52.704;13.814;2022-12-07T01:18:47;3.10;99.90
49242;DHT22;35079;52.704;13.814;2022-12-07T01:21:16;3.20;99.90
49242;DHT22;35079;52.704;13.814;2022-12-07T01:23:42;3.20;99.90
49242;DHT22;35079;52.704;13.814;2022-12-07T01:26:11;3.20;99.90
49242;DHT22;35079;52.704;13.814;2022-12-07T01:28:37;3.20;99.90
49242;DHT22;35079;52.704;13.814;2022-12-07T01:31:04;3.10;99.90
49242;DHT22;35079;52.704;13.814;2022-12-07T01:33:33;3.10;99.90
49242;DHT22;35079;52.704;13.814;2022-12-07T01:38:44;3.10;99.90
49242;DHT22;35079;52.704;13.814;2022-12-07T01:41:11;3.00;99.90
49242;DHT22;35079;52.704;13.814;2022-12-07T01:44:06;3.00;99.90
49242;DHT22;35079;52.704;13.814;2022-12-07T01:46:22;2.90;99.90
49242;DHT22;35079;52.704;13.814;2022-12-07T01:48:48;3.10;99.90
49242;DHT22;35079;52.704;13.814;2022-12-07T01:51:15;2.90;99.90
49242;DHT22;35079;52.704;13.814;2022-12-07T01:53:43;2.80;99.90
49242;DHT22;35079;52.704;13.814;2022-12-07T01:56:14;2.80;99.90
49242;DHT22;35079;52.704;13.814;2022-12-07T01:58:42;2.70;99.90
49242;DHT22;35079;52.704;13.814;2022-12-07T02:01:08;2.60;99.90
49242;DHT22;35079;52.704;13.814;2022-12-07T02:03:37;2.60;99.90
49242;DHT22;35079;52.704;13.814;2022-12-07T02:06:05;2.60;99.90
49242;DHT22;35079;52.704;13.814;2022-12-07T02:08:32;2.60;99.90
49242;DHT22;35079;52.704;13.814;2022-12-07T02:10:58;2.60;99.90
49242;DHT22;35079;52.704;13.814;2022-12-07T02:13:26;2.60;99.90
49242;DHT22;35079;52.704;13.814;2022-12-07T02:21:12;2.60;99.90
49242;DHT22;35079;52.704;13.814;2022-12-07T02:26:48;2.60;99.90
49242;DHT22;35079;52.704;13.814;2022-12-07T02:29:28;2.50;99.90
49242;DHT22;35079;52.704;13.814;2022-12-07T02:32:16;2.50;99.90
49242;DHT22;35079;52.704;13.814;2022-12-07T02:34:49;2.60;99.90
49242;DHT22;35079;52.704;13.814;2022-12-07T02:37:42;2.50;99.90
49242;DHT22;35079;52.704;13.814;2022-12-07T02:40:26;2.50;99.90
49242;DHT22;35079;52.704;13.814;2022-12-07T02:43:08;2.50;99.90
49242;DHT22;35079;52.704;13.814;2022-12-07T02:45:38;2.50;99.90
49242;DHT22;35079;52.704;13.814;2022-12-07T02:48:06;2.40;99.90
49242;DHT22;35079;52.704;13.814;2022-12-07T02:53:54;2.50;99.90
49242;DHT22;35079;52.704;13.814;2022-12-07T03:04:17;2.40;99.90
49242;DHT22;35079;52.704;13.814;2022-12-07T03:06:56;2.40;99.90
49242;DHT22;35079;52.704;13.814;2022-12-07T03:09:41;2.30;99.90
49242;DHT22;35079;52.704;13.814;2022-12-07T03:12:14;2.40;99.90
49242;DHT22;35079;52.704;13.814;2022-12-07T03:14:47;2.30;99.90
49242;DHT22;35079;52.704;13.814;2022-12-07T03:17:25;2.30;99.90
49242;DHT22;35079;52.704;13.814;2022-12-07T03:19:55;2.30;99.90
49242;DHT22;35079;52.704;13.814;2022-12-07T03:22:23;2.30;99.90
49242;DHT22;35079;52.704;13.814;2022-12-07T03:24:55;2.20;99.90
49242;DHT22;35079;52.704;13.814;2022-12-07T03:27:33;2.30;99.90
49242;DHT22;35079;52.704;13.814;2022-12-07T03:30:14;2.20;99.90
49242;DHT22;35079;52.704;13.814;2022-12-07T03:32:50;2.20;99.90
49242;DHT22;35079;52.704;13.814;2022-12-07T03:35:37;2.10;99.90
49242;DHT22;35079;52.704;13.814;2022-12-07T03:40:49;2.10;99.90
49242;DHT22;35079;52.704;13.814;2022-12-07T03:43:17;2.10;99.90
49242;DHT22;35079;52.704;13.814;2022-12-07T03:45:53;2.20;99.90
49242;DHT22;35079;52.704;13.814;2022-12-07T03:48:24;2.20;99.90
49242;DHT22;35079;52.704;13.814;2022-12-07T03:53:31;2.20;99.90
49242;DHT22;35079;52.704;13.814;2022-12-07T03:56:01;2.30;99.90
49242;DHT22;35079;52.704;13.814;2022-12-07T03:58:28;2.20;99.90
49242;DHT22;35079;52.704;13.814;2022-12-07T04:00:55;2.10;99.90
49242;DHT22;35079;52.704;13.814;2022-12-07T04:03:20;2.10;99.90
49242;DHT22;35079;52.704;13.814;2022-12-07T04:05:46;2.20;99.90
49242;DHT22;35079;52.704;13.814;2022-12-07T04:08:12;2.10;99.90
49242;DHT22;35079;52.704;13.814;2022-12-07T04:10:38;2.30;99.90
49242;DHT22;35079;52.704;13.814;2022-12-07T04:13:04;2.10;99.90
49242;DHT22;35079;52.704;13.814;2022-12-07T04:15:29;2.30;99.90
49242;DHT22;35079;52.704;13.814;2022-12-07T04:17:55;2.30;99.90
49242;DHT22;35079;52.704;13.814;2022-12-07T04:20:20;2.20;99.90
49242;DHT22;35079;52.704;13.814;2022-12-07T04:22:46;2.40;99.90
49242;DHT22;35079;52.704;13.814;2022-12-07T04:25:12;2.30;99.90
49242;DHT22;35079;52.704;13.814;2022-12-07T04:27:38;2.20;99.90
49242;DHT22;35079;52.704;13.814;2022-12-07T04:30:07;2.20;99.90
49242;DHT22;35079;52.704;13.814;2022-12-07T04:32:32;2.10;99.90
49242;DHT22;35079;52.704;13.814;2022-12-07T04:34:58;2.10;99.90
49242;DHT22;35079;52.704;13.814;2022-12-07T04:37:24;2.10;99.90
49242;DHT22;35079;52.704;13.814;2022-12-07T04:39:49;2.10;99.90
49242;DHT22;35079;52.704;13.814;2022-12-07T04:42:15;2.00;99.90
49242;DHT22;35079;52.704;13.814;2022-12-07T04:44:41;2.00;99.90
49242;DHT22;35079;52.704;13.814;2022-12-07T04:47:06;2.10;99.90
49242;DHT22;35079;52.704;13.814;2022-12-07T04:49:32;2.20;99.90
49242;DHT22;35079;52.704;13.814;2022-12-07T04:51:58;2.10;99.90
49242;DHT22;35079;52.704;13.814;2022-12-07T04:54:24;2.00;99.90
49242;DHT22;35079;52.704;13.814;2022-12-07T04:56:49;2.00;99.90
49242;DHT22;35079;52.704;13.814;2022-12-07T04:59:16;1.90;99.90
49242;DHT22;35079;52.704;13.814;2022-12-07T05:01:42;2.10;99.90
49242;DHT22;35079;52.704;13.814;2022-12-07T05:04:08;1.90;99.90
49242;DHT22;35079;52.704;13.814;2022-12-07T05:06:34;2.00;99.90
49242;DHT22;35079;52.704;13.814;2022-12-07T05:09:00;1.90;99.90
49242;DHT22;35079;52.704;13.814;2022-12-07T05:11:26;2.00;99.90
49242;DHT22;35079;52.704;13.814;2022-12-07T05:16:38;2.10;99.90
49242;DHT22;35079;52.704;13.814;2022-12-07T05:19:07;2.00;99.90
49242;DHT22;35079;52.704;13.814;2022-12-07T05:21:33;2.10;99.90
49242;DHT22;35079;52.704;13.814;2022-12-07T05:23:59;2.00;99.90
49242;DHT22;35079;52.704;13.814;2022-12-07T05:26:25;2.00;99.90
49242;DHT22;35079;52.704;13.814;2022-12-07T05:28:54;2.10;99.90
49242;DHT22;35079;52.704;13.814;2022-12-07T05:31:20;2.00;99.90
49242;DHT22;35079;52.704;13.814;2022-12-07T05:33:45;2.10;99.90
49242;DHT22;35079;52.704;13.814;2022-12-07T05:36:11;2.00;99.90
49242;DHT22;35079;52.704;13.814;2022-12-07T05:38:36;2.00;99.90
49242;DHT22;35079;52.704;13.814;2022-12-07T05:41:03;2.10;99.90
49242;DHT22;35079;52.704;13.814;2022-12-07T05:43:30;2.20;99.90
49242;DHT22;35079;52.704;13.814;2022-12-07T05:45:56;2.20;99.90
49242;DHT22;35079;52.704;13.814;2022-12-07T05:48:22;2.30;99.90
49242;DHT22;35079;52.704;13.814;2022-12-07T05:50:48;2.20;99.90
49242;DHT22;35079;52.704;13.814;2022-12-07T05:53:14;2.20;99.90
49242;DHT22;35079;52.704;13.814;2022-12-07T05:55:40;2.20;99.90
49242;DHT22;35079;52.704;13.814;2022-12-07T05:58:05;2.20;99.90
49242;DHT22;35079;52.704;13.814;2022-12-07T06:00:49;2.30;99.90
49242;DHT22;35079;52.704;13.814;2022-12-07T06:03:15;2.30;99.90
49242;DHT22;35079;52.704;13.814;2022-12-07T06:05:41;2.40;99.90
49242;DHT22;35079;52.704;13.814;2022-12-07T06:08:07;2.30;99.90
49242;DHT22;35079;52.704;13.814;2022-12-07T06:10:32;2.30;99.90
49242;DHT22;35079;52.704;13.814;2022-12-07T06:12:58;2.30;99.90
49242;DHT22;35079;52.704;13.814;2022-12-07T06:15:24;2.40;99.90
49242;DHT22;35079;52.704;13.814;2022-12-07T06:17:49;2.40;99.90
49242;DHT22;35079;52.704;13.814;2022-12-07T06:20:15;2.40;99.90
49242;DHT22;35079;52.704;13.814;2022-12-07T06:22:41;2.50;99.90
49242;DHT22;35079;52.704;13.814;2022-12-07T06:25:07;2.60;99.90
49242;DHT22;35079;52.704;13.814;2022-12-07T06:27:33;2.60;99.90
49242;DHT22;35079;52.704;13.814;2022-12-07T06:29:59;2.70;99.90
49242;DHT22;35079;52.704;13.814;2022-12-07T06:32:25;2.70;99.90
49242;DHT22;35079;52.704;13.814;2022-12-07T06:34:50;2.80;99.90
49242;DHT22;35079;52.704;13.814;2022-12-07T06:37:16;2.90;99.90
49242;DHT22;35079;52.704;13.814;2022-12-07T06:39:41;2.80;99.90
49242;DHT22;35079;52.704;13.814;2022-12-07T06:42:07;2.80;99.90
49242;DHT22;35079;52.704;13.814;2022-12-07T06:44:33;2.80;99.90
49242;DHT22;35079;52.704;13.814;2022-12-07T06:46:59;3.00;99.90
49242;DHT22;35079;52.704;13.814;2022-12-07T06:49:24;2.90;99.90
49242;DHT22;35079;52.704;13.814;2022-12-07T06:51:50;2.90;99.90
49242;DHT22;35079;52.704;13.814;2022-12-07T06:54:16;3.00;99.90
49242;DHT22;35079;52.704;13.814;2022-12-07T06:56:42;2.90;99.90
49242;DHT22;35079;52.704;13.814;2022-12-07T06:59:08;3.00;99.90
49242;DHT22;35079;52.704;13.814;2022-12-07T07:01:34;3.00;99.90
49242;DHT22;35079;52.704;13.814;2022-12-07T07:04:00;3.10;99.90
49242;DHT22;35079;52.704;13.814;2022-12-07T07:06:26;3.00;99.90
49242;DHT22;35079;52.704;13.814;2022-12-07T07:08:52;3.00;99.90
49242;DHT22;35079;52.704;13.814;2022-12-07T07:11:17;3.10;99.90
49242;DHT22;35079;52.704;13.814;2022-12-07T07:13:44;3.00;99.90
49242;DHT22;35079;52.704;13.814;2022-12-07T07:16:10;3.00;99.90
49242;DHT22;35079;52.704;13.814;2022-12-07T07:18:36;3.00;99.90
49242;DHT22;35079;52.704;13.814;2022-12-07T07:21:02;3.00;99.90
49242;DHT22;35079;52.704;13.814;2022-12-07T07:23:28;3.20;99.90
49242;DHT22;35079;52.704;13.814;2022-12-07T07:25:53;3.20;99.90
49242;DHT22;35079;52.704;13.814;2022-12-07T07:28:19;3.20;99.90
49242;DHT22;35079;52.704;13.814;2022-12-07T07:30:45;3.10;99.90
49242;DHT22;35079;52.704;13.814;2022-12-07T07:33:11;3.20;99.90
49242;DHT22;35079;52.704;13.814;2022-12-07T07:35:37;3.10;99.90
49242;DHT22;35079;52.704;13.814;2022-12-07T07:38:03;3.10;99.90
49242;DHT22;35079;52.704;13.814;2022-12-07T07:40:29;3.20;99.90
49242;DHT22;35079;52.704;13.814;2022-12-07T07:42:55;3.10;99.90
49242;DHT22;35079;52.704;13.814;2022-12-07T07:45:22;3.20;99.90
49242;DHT22;35079;52.704;13.814;2022-12-07T07:47:48;3.20;99.90
49242;DHT22;35079;52.704;13.814;2022-12-07T07:53:21;3.30;99.90
49242;DHT22;35079;52.704;13.814;2022-12-07T07:55:53;3.30;99.90
49242;DHT22;35079;52.704;13.814;2022-12-07T07:58:19;3.30;99.90
49242;DHT22;35079;52.704;13.814;2022-12-07T08:00:45;3.40;99.90
49242;DHT22;35079;52.704;13.814;2022-12-07T08:03:10;3.30;99.90
49242;DHT22;35079;52.704;13.814;2022-12-07T08:05:37;3.40;99.90
49242;DHT22;35079;52.704;13.814;2022-12-07T08:08:03;3.40;99.90
49242;DHT22;35079;52.704;13.814;2022-12-07T08:10:52;3.40;99.90
49242;DHT22;35079;52.704;13.814;2022-12-07T08:13:17;3.40;99.90
49242;DHT22;35079;52.704;13.814;2022-12-07T08:15:45;3.60;99.90
49242;DHT22;35079;52.704;13.814;2022-12-07T08:18:12;3.50;99.90
49242;DHT22;35079;52.704;13.814;2022-12-07T08:20:39;3.50;99.90
49242;DHT22;35079;52.704;13.814;2022-12-07T08:23:06;3.50;99.90
49242;DHT22;35079;52.704;13.814;2022-12-07T08:25:32;3.50;99.90
49242;DHT22;35079;52.704;13.814;2022-12-07T08:27:59;3.60;99.90
49242;DHT22;35079;52.704;13.814;2022-12-07T08:31:02;3.50;99.90
49242;DHT22;35079;52.704;13.814;2022-12-07T08:33:29;3.60;99.90
49242;DHT22;35079;52.704;13.814;2022-12-07T08:36:03;3.50;99.90
49242;DHT22;35079;52.704;13.814;2022-12-07T08:38:29;3.50;99.90
49242;DHT22;35079;52.704;13.814;2022-12-07T08:40:55;3.50;99.90
49242;DHT22;35079;52.704;13.814;2022-12-07T08:43:22;3.50;99.90
49242;DHT22;35079;52.704;13.814;2022-12-07T08:46:32;3.60;99.90
49242;DHT22;35079;52.704;13.814;2022-12-07T08:48:42;3.80;99.90
49242;DHT22;35079;52.704;13.814;2022-12-07T08:51:09;3.70;99.90
49242;DHT22;35079;52.704;13.814;2022-12-07T08:53:35;3.70;99.90
49242;DHT22;35079;52.704;13.814;2022-12-07T08:56:02;3.70;99.90
49242;DHT22;35079;52.704;13.814;2022-12-07T08:58:29;3.80;99.90
49242;DHT22;35079;52.704;13.814;2022-12-07T09:00:54;3.70;99.90
49242;DHT22;35079;52.704;13.814;2022-12-07T09:03:26;3.70;99.90
49242;DHT22;35079;52.704;13.814;2022-12-07T09:05:53;3.70;99.90
49242;DHT22;35079;52.704;13.814;2022-12-07T09:08:19;3.70;99.90
49242;DHT22;35079;52.704;13.814;2022-12-07T09:10:45;3.70;99.90
49242;DHT22;35079;52.704;13.814;2022-12-07T09:13:11;3.80;99.90
49242;DHT22;35079;52.704;13.814;2022-12-07T09:15:37;3.90;99.90
49242;DHT22;35079;52.704;13.814;2022-12-07T09:18:03;3.90;99.90
49242;DHT22;35079;52.704;13.814;2022-12-07T09:20:28;4.00;99.90
49242;DHT22;35079;52.704;13.814;2022-12-07T09:22:54;4.10;99.90
49242;DHT22;35079;52.704;13.814;2022-12-07T09:25:20;3.90;99.90
49242;DHT22;35079;52.704;13.814;2022-12-07T09:27:46;3.80;99.90
49242;DHT22;35079;52.704;13.814;2022-12-07T09:30:11;3.90;99.90
49242;DHT22;35079;52.704;13.814;2022-12-07T09:32:37;3.90;99.90
49242;DHT22;35079;52.704;13.814;2022-12-07T09:35:03;4.00;99.90
49242;DHT22;35079;52.704;13.814;2022-12-07T09:37:28;3.90;99.90
49242;DHT22;35079;52.704;13.814;2022-12-07T09:39:55;4.00;99.90
49242;DHT22;35079;52.704;13.814;2022-12-07T09:42:34;4.00;99.90
49242;DHT22;35079;52.704;13.814;2022-12-07T09:45:01;3.90;99.90
49242;DHT22;35079;52.704;13.814;2022-12-07T09:47:28;4.00;99.90
49242;DHT22;35079;52.704;13.814;2022-12-07T09:50:10;3.90;99.90
49242;DHT22;35079;52.704;13.814;2022-12-07T09:52:37;3.90;99.90
49242;DHT22;35079;52.704;13.814;2022-12-07T09:55:03;3.80;99.90
49242;DHT22;35079;52.704;13.814;2022-12-07T09:57:33;3.80;99.90
49242;DHT22;35079;52.704;13.814;2022-12-07T10:00:25;3.80;99.90
49242;DHT22;35079;52.704;13.814;2022-12-07T10:02:59;3.80;99.90
49242;DHT22;35079;52.704;13.814;2022-12-07T10:05:38;3.70;99.90
49242;DHT22;35079;52.704;13.814;2022-12-07T10:08:08;3.90;99.90
49242;DHT22;35079;52.704;13.814;2022-12-07T10:10:35;3.80;99.90
49242;DHT22;35079;52.704;13.814;2022-12-07T10:13:18;4.00;99.90
49242;DHT22;35079;52.704;13.814;2022-12-07T10:15:52;3.90;99.90
49242;DHT22;35079;52.704;13.814;2022-12-07T10:18:38;4.00;99.90
49242;DHT22;35079;52.704;13.814;2022-12-07T10:21:11;3.90;99.90
49242;DHT22;35079;52.704;13.814;2022-12-07T10:23:40;3.80;99.90
49242;DHT22;35079;52.704;13.814;2022-12-07T10:29:02;4.00;99.90
49242;DHT22;35079;52.704;13.814;2022-12-07T10:31:39;4.20;99.90
49242;DHT22;35079;52.704;13.814;2022-12-07T10:34:22;4.70;99.90
49242;DHT22;35079;52.704;13.814;2022-12-07T10:36:50;4.80;99.90
49242;DHT22;35079;52.704;13.814;2022-12-07T10:39:23;4.70;99.90
49242;DHT22;35079;52.704;13.814;2022-12-07T10:42:00;4.60;99.90
49242;DHT22;35079;52.704;13.814;2022-12-07T10:44:31;4.50;99.90
49242;DHT22;35079;52.704;13.814;2022-12-07T10:50:54;4.20;99.90
49242;DHT22;35079;52.704;13.814;2022-12-07T10:53:44;4.20;99.90
49242;DHT22;35079;52.704;13.814;2022-12-07T11:10:18;4.00;99.90
49242;DHT22;35079;52.704;13.814;2022-12-07T11:18:29;4.10;99.90
49242;DHT22;35079;52.704;13.814;2022-12-07T11:21:03;4.00;99.90
49242;DHT22;35079;52.704;13.814;2022-12-07T11:26:24;4.10;99.90
49242;DHT22;35079;52.704;13.814;2022-12-07T11:37:34;4.00;99.90
49242;DHT22;35079;52.704;13.814;2022-12-07T11:40:17;4.00;99.90
49242;DHT22;35079;52.704;13.814;2022-12-07T11:43:05;4.00;99.90
49242;DHT22;35079;52.704;13.814;2022-12-07T11:45:37;4.00;99.90
49242;DHT22;35079;52.704;13.814;2022-12-07T11:48:16;4.00;99.90
49242;DHT22;35079;52.704;13.814;2022-12-07T11:50:50;4.10;99.90
49242;DHT22;35079;52.704;13.814;2022-12-07T11:53:38;4.10;99.90
49242;DHT22;35079;52.704;13.814;2022-12-07T11:56:16;3.90;99.90
49242;DHT22;35079;52.704;13.814;2022-12-07T11:59:01;3.80;99.90
49242;DHT22;35079;52.704;13.814;2022-12-07T12:06:45;3.70;99.90
49242;DHT22;35079;52.704;13.814;2022-12-07T12:09:33;3.70;99.90
49242;DHT22;35079;52.704;13.814;2022-12-07T12:21:02;3.80;99.90
49242;DHT22;35079;52.704;13.814;2022-12-07T12:25:57;3.70;99.90
49242;DHT22;35079;52.704;13.814;2022-12-07T12:28:32;3.80;99.90
49242;DHT22;35079;52.704;13.814;2022-12-07T12:31:16;3.80;99.90
49242;DHT22;35079;52.704;13.814;2022-12-07T12:33:56;3.70;99.90
49242;DHT22;35079;52.704;13.814;2022-12-07T12:47:02;3.60;99.90
49242;DHT22;35079;52.704;13.814;2022-12-07T12:54:21;3.70;99.90
49242;DHT22;35079;52.704;13.814;2022-12-07T12:56:51;3.80;99.90
49242;DHT22;35079;52.704;13.814;2022-12-07T13:01:47;3.90;99.90
49242;DHT22;35079;52.704;13.814;2022-12-07T13:07:11;4.00;99.90
49242;DHT22;35079;52.704;13.814;2022-12-07T13:09:42;4.10;99.90
49242;DHT22;35079;52.704;13.814;2022-12-07T13:12:14;4.20;99.90
49242;DHT22;35079;52.704;13.814;2022-12-07T13:14:42;4.20;99.90
49242;DHT22;35079;52.704;13.814;2022-12-07T13:17:10;4.10;99.90
49242;DHT22;35079;52.704;13.814;2022-12-07T13:25:45;4.00;99.90
49242;DHT22;35079;52.704;13.814;2022-12-07T13:28:17;3.90;99.90
49242;DHT22;35079;52.704;13.814;2022-12-07T13:31:35;3.90;99.90
49242;DHT22;35079;52.704;13.814;2022-12-07T13:34:03;3.90;99.90
49242;DHT22;35079;52.704;13.814;2022-12-07T13:36:37;3.80;99.90
49242;DHT22;35079;52.704;13.814;2022-12-07T13:39:19;3.90;99.90
49242;DHT22;35079;52.704;13.814;2022-12-07T13:41:50;3.80;99.90
49242;DHT22;35079;52.704;13.814;2022-12-07T13:44:17;3.80;99.90
49242;DHT22;35079;52.704;13.814;2022-12-07T13:49:27;3.70;99.90
49242;DHT22;35079;52.704;13.814;2022-12-07T13:51:54;3.70;99.90
49242;DHT22;35079;52.704;13.814;2022-12-07T13:54:21;3.70;99.90
49242;DHT22;35079;52.704;13.814;2022-12-07T13:56:52;3.80;99.90
49242;DHT22;35079;52.704;13.814;2022-12-07T13:59:25;3.70;99.90
49242;DHT22;35079;52.704;13.814;2022-12-07T14:01:52;3.80;99.90
49242;DHT22;35079;52.704;13.814;2022-12-07T14:06:50;3.80;99.90
49242;DHT22;35079;52.704;13.814;2022-12-07T14:09:25;3.60;99.90
49242;DHT22;35079;52.704;13.814;2022-12-07T14:11:53;3.50;99.90
49242;DHT22;35079;52.704;13.814;2022-12-07T14:14:25;3.60;99.90
49242;DHT22;35079;52.704;13.814;2022-12-07T14:22:28;3.30;99.90
49242;DHT22;35079;52.704;13.814;2022-12-07T14:27:38;3.40;99.90
49242;DHT22;35079;52.704;13.814;2022-12-07T14:30:05;3.20;99.90
49242;DHT22;35079;52.704;13.814;2022-12-07T14:32:31;3.20;99.90
49242;DHT22;35079;52.704;13.814;2022-12-07T14:35:01;3.20;99.90
49242;DHT22;35079;52.704;13.814;2022-12-07T14:37:28;3.20;99.90
49242;DHT22;35079;52.704;13.814;2022-12-07T14:39:55;3.20;99.90
49242;DHT22;35079;52.704;13.814;2022-12-07T14:42:23;3.10;99.90
49242;DHT22;35079;52.704;13.814;2022-12-07T14:44:49;3.10;99.90
49242;DHT22;35079;52.704;13.814;2022-12-07T14:47:15;3.20;99.90
49242;DHT22;35079;52.704;13.814;2022-12-07T14:49:40;3.20;99.90
49242;DHT22;35079;52.704;13.814;2022-12-07T14:52:21;3.20;99.90
49242;DHT22;35079;52.704;13.814;2022-12-07T14:54:47;3.10;99.90
49242;DHT22;35079;52.704;13.814;2022-12-07T14:57:12;3.20;99.90
49242;DHT22;35079;52.704;13.814;2022-12-07T14:59:39;3.00;99.90
49242;DHT22;35079;52.704;13.814;2022-12-07T15:02:05;3.00;99.90
49242;DHT22;35079;52.704;13.814;2022-12-07T15:04:31;2.90;99.90
49242;DHT22;35079;52.704;13.814;2022-12-07T15:07:03;2.90;99.90
49242;DHT22;35079;52.704;13.814;2022-12-07T15:09:29;2.70;99.90
49242;DHT22;35079;52.704;13.814;2022-12-07T15:11:54;2.70;99.90
49242;DHT22;35079;52.704;13.814;2022-12-07T15:14:20;2.60;99.90
49242;DHT22;35079;52.704;13.814;2022-12-07T15:16:45;2.60;99.90
49242;DHT22;35079;52.704;13.814;2022-12-07T15:19:19;2.60;99.90
49242;DHT22;35079;52.704;13.814;2022-12-07T15:21:48;2.50;99.90
49242;DHT22;35079;52.704;13.814;2022-12-07T15:24:14;2.50;99.90
49242;DHT22;35079;52.704;13.814;2022-12-07T15:26:40;2.40;99.90
49242;DHT22;35079;52.704;13.814;2022-12-07T15:29:06;2.40;99.90
49242;DHT22;35079;52.704;13.814;2022-12-07T15:31:32;2.40;99.90
49242;DHT22;35079;52.704;13.814;2022-12-07T15:33:58;2.30;99.90
49242;DHT22;35079;52.704;13.814;2022-12-07T15:36:26;2.30;99.90
49242;DHT22;35079;52.704;13.814;2022-12-07T15:38:52;2.30;99.90
49242;DHT22;35079;52.704;13.814;2022-12-07T15:41:18;2.30;99.90
49242;DHT22;35079;52.704;13.814;2022-12-07T15:43:44;2.20;99.90
49242;DHT22;35079;52.704;13.814;2022-12-07T15:46:34;2.20;99.90
49242;DHT22;35079;52.704;13.814;2022-12-07T15:49:00;2.30;99.90
49242;DHT22;35079;52.704;13.814;2022-12-07T15:51:25;2.30;99.90
49242;DHT22;35079;52.704;13.814;2022-12-07T15:53:51;2.30;99.90
49242;DHT22;35079;52.704;13.814;2022-12-07T15:56:17;2.30;99.90
49242;DHT22;35079;52.704;13.814;2022-12-07T15:58:43;2.30;99.90
49242;DHT22;35079;52.704;13.814;2022-12-07T16:01:16;2.30;99.90
49242;DHT22;35079;52.704;13.814;2022-12-07T16:03:43;2.40;99.90
49242;DHT22;35079;52.704;13.814;2022-12-07T16:06:09;2.30;99.90
49242;DHT22;35079;52.704;13.814;2022-12-07T16:08:35;2.30;99.90
49242;DHT22;35079;52.704;13.814;2022-12-07T16:11:07;2.30;99.90
49242;DHT22;35079;52.704;13.814;2022-12-07T16:13:33;2.30;99.90
49242;DHT22;35079;52.704;13.814;2022-12-07T16:16:04;2.20;99.90
49242;DHT22;35079;52.704;13.814;2022-12-07T16:18:30;2.10;99.90
49242;DHT22;35079;52.704;13.814;2022-12-07T16:20:56;2.10;99.90
49242;DHT22;35079;52.704;13.814;2022-12-07T16:23:21;2.30;99.90
49242;DHT22;35079;52.704;13.814;2022-12-07T16:25:47;2.10;99.90
49242;DHT22;35079;52.704;13.814;2022-12-07T16:28:12;2.20;99.90
49242;DHT22;35079;52.704;13.814;2022-12-07T16:30:38;2.10;99.90
49242;DHT22;35079;52.704;13.814;2022-12-07T16:33:04;2.00;99.90
49242;DHT22;35079;52.704;13.814;2022-12-07T16:35:29;2.10;99.90
49242;DHT22;35079;52.704;13.814;2022-12-07T16:37:55;1.90;99.90
49242;DHT22;35079;52.704;13.814;2022-12-07T16:40:27;1.80;99.90
49242;DHT22;35079;52.704;13.814;2022-12-07T16:42:52;1.80;99.90
49242;DHT22;35079;52.704;13.814;2022-12-07T16:45:18;1.70;99.90
49242;DHT22;35079;52.704;13.814;2022-12-07T16:47:44;1.50;99.90
49242;DHT22;35079;52.704;13.814;2022-12-07T16:50:09;1.50;99.90
49242;DHT22;35079;52.704;13.814;2022-12-07T16:52:35;1.40;99.90
49242;DHT22;35079;52.704;13.814;2022-12-07T16:55:01;1.40;99.90
49242;DHT22;35079;52.704;13.814;2022-12-07T16:57:30;1.40;99.90
49242;DHT22;35079;52.704;13.814;2022-12-07T16:59:56;1.30;99.90
49242;DHT22;35079;52.704;13.814;2022-12-07T17:02:21;1.30;99.90
49242;DHT22;35079;52.704;13.814;2022-12-07T17:04:47;1.30;99.90
49242;DHT22;35079;52.704;13.814;2022-12-07T17:07:12;1.30;99.90
49242;DHT22;35079;52.704;13.814;2022-12-07T17:09:38;1.50;99.90
49242;DHT22;35079;52.704;13.814;2022-12-07T17:12:04;1.60;99.90
49242;DHT22;35079;52.704;13.814;2022-12-07T17:14:31;1.50;99.90
49242;DHT22;35079;52.704;13.814;2022-12-07T17:17:17;1.80;99.90
49242;DHT22;35079;52.704;13.814;2022-12-07T17:19:42;1.70;99.90
49242;DHT22;35079;52.704;13.814;2022-12-07T17:22:08;1.70;99.90
49242;DHT22;35079;52.704;13.814;2022-12-07T17:24:36;1.60;99.90
49242;DHT22;35079;52.704;13.814;2022-12-07T17:27:02;1.60;99.90
49242;DHT22;35079;52.704;13.814;2022-12-07T17:29:27;1.70;99.90
49242;DHT22;35079;52.704;13.814;2022-12-07T17:31:53;1.70;99.90
49242;DHT22;35079;52.704;13.814;2022-12-07T17:34:19;1.70;99.90
49242;DHT22;35079;52.704;13.814;2022-12-07T17:36:44;1.80;99.90
49242;DHT22;35079;52.704;13.814;2022-12-07T17:39:13;1.70;99.90
49242;DHT22;35079;52.704;13.814;2022-12-07T17:41:39;1.70;99.90
49242;DHT22;35079;52.704;13.814;2022-12-07T17:44:24;1.70;99.90
49242;DHT22;35079;52.704;13.814;2022-12-07T17:46:51;1.70;99.90
49242;DHT22;35079;52.704;13.814;2022-12-07T17:49:22;1.80;99.90